ANACAPA ISLAND CA US current weather conditions

sailwx.info

Wind from 312 at 3 knots gusting 6

Air temperature 32.2° C
Dewpoint 5.6° C

Last reported at 2016-Sep-26 19:23 UTC.
Time now 2016-Sep-26 20:47 UTC

Location: N 34°01' W 119°22'.
View on Google Maps.

See reports from other nearby stations

  
Tides and Currents Weather Stations Pressure Air Temp Water Temp Dewpoint Dewpoint Depression Visibility Wind Speed Wind Dir Waves Ship Positions
date/time (UTC)wind fromknots sea level pressurealtimeterstation pressurevisibilityair tempwater tempwave heightnotes
2016-Sep-26 19:23 312 3 gusting 6 32.2
2016-Sep-26 18:23 339 3 gusting 12 30.6
2016-Sep-26 17:23 054 10 gusting 15 31.1
2016-Sep-26 16:23 043 7 gusting 11 28.3
2016-Sep-26 15:23 027 4 gusting 11 26.1
2016-Sep-26 14:23 026 3 gusting 8 23.9
2016-Sep-26 13:23 012 3 gusting 7 23.3
2016-Sep-26 12:23 347 4 gusting 8 22.2
2016-Sep-26 11:23 333 5 gusting 10 22.8
2016-Sep-26 10:23 347 6 gusting 9 23.3
2016-Sep-26 09:23 340 6 gusting 9 22.2
2016-Sep-26 08:23 328 6 gusting 10 22.2
2016-Sep-26 07:23 337 7 gusting 14 22.2
2016-Sep-26 06:23 316 6 gusting 16 23.3
2016-Sep-26 05:23 322 9 gusting 24 26.7
2016-Sep-26 04:23 310 10 gusting 15 23.9
2016-Sep-26 03:23 321 7 gusting 13 21.7
2016-Sep-26 02:23 294 8 gusting 19 22.2
2016-Sep-26 01:23 300 11 gusting 17 23.9
2016-Sep-26 00:23 304 8 gusting 13 24.4
2016-Sep-25 23:23 286 5 gusting 11 27.2
2016-Sep-25 22:23 302 6 gusting 13 25.0
2016-Sep-25 21:23 252 8 gusting 13 26.7
2016-Sep-25 20:23 216 7 gusting 13 27.2
2016-Sep-25 19:23 215 6 gusting 13 26.7
2016-Sep-25 18:23 200 5 gusting 9 25.0
2016-Sep-25 17:23 175 3 gusting 6 24.4
2016-Sep-25 16:23 106 3 gusting 5 23.9
2016-Sep-25 15:23 128 3 gusting 6 23.9
2016-Sep-25 14:23 047 1 gusting 3 21.7
2016-Sep-25 13:23 008 2 gusting 10 19.4
2016-Sep-25 12:23 088 6 gusting 12 21.1
2016-Sep-25 11:23 302 1 gusting 6 18.9
2016-Sep-25 10:23 306 3 gusting 5 18.9
2016-Sep-25 09:23 295 3 gusting 9 20.0
2016-Sep-25 08:23 317 7 gusting 11 19.4
2016-Sep-25 07:23 321 7 gusting 11 19.4
2016-Sep-25 06:23 340 7 gusting 12 18.3
2016-Sep-25 05:23 331 6 gusting 13 18.9
2016-Sep-25 04:23 323 5 gusting 12 18.9
2016-Sep-25 03:23 324 6 gusting 13 18.9
2016-Sep-25 02:23 310 6 gusting 13 18.9
2016-Sep-25 01:23 297 6 gusting 11 22.2
2016-Sep-25 00:23 299 4 gusting 7 23.3
2016-Sep-24 23:23 320 5 gusting 8 23.9
2016-Sep-24 22:23 300 5 gusting 8 22.2
2016-Sep-24 21:23 303 3 gusting 6 23.3
2016-Sep-24 20:23 241 3 gusting 6 24.4